Bolinas, CA (94924)

4:27 AM PST on March 03, 2015 (GMT -0800)
Woodacre Hills | Change Station
CLOSE
Current Station
Personal Weather Station
Location: Woodacre, CA
Elevation: 561 ft
Nearby Weather Stations

Elev 561 ft 38.00 °N, 122.64 °W | Updated 2 minutes ago

Clear
Clear
37.7 °F
Feels Like 38 °F
N
0.0
Wind Variable Wind from SW
Gusts 0.0 mph

Today
High -- | Low -- °F
--% Chance of Precip.
Yesterday
High -- | Low -- °F
Precip. -- in
6:39 AM 6:06 PM
Waxing Gibbous, 96% visible
Pressure 30.03 in
Visibility 7.0 miles
Clouds Few 300 ft
Scattered Clouds 1800 ft
Scattered Clouds 4300 ft
Windchill 38 °F
Dew Point 36 °F
Humidity 95%
Rainfall 0.00 in
Snow Depth Not available.
UV 0 out of 12
Pollen 8.20 out of 12
Air Quality Not available.
Flu Activity Not available.
METAR KO69 031215Z AUTO 00000KT 7SM FEW003 SCT018 SCT043 03/03 A3003 RMK AO1

More Conditions Fewer Conditions

Pressure 30.03 in
Visibility 7.0 miles
Clouds Few 300 ft
Scattered Clouds 1800 ft
Scattered Clouds 4300 ft
Windchill 38 °F
Dew Point 36 °F
Humidity 95%
Rainfall 0.00 in
Snow Depth Not available.
UV 0 out of 12
Pollen 8.20 out of 12
Air Quality Not available.
Flu Activity Not available.
METAR KO69 031215Z AUTO 00000KT 7SM FEW003 SCT018 SCT043 03/03 A3003 RMK AO1

More Conditions Fewer Conditions

10-Day Weather Forecast

Almanac

Astronomy

Mar. 03, 2015 Rise Set
Actual Time
Civil Twilight
Nautical Twilight
Astronomical Twilight
Moon
Length of Visible Light
Length of Day
Tomorrow will be .
, % of the Moon is Illuminated

Today's Extremes

State Highs State Lows

Community

WunderPhotos

Upload Photos

1,802,095 photos uploaded!

WunderBlogs® & News

Nearby

Air Quality

  Air Quality AQ Index Pollutant
Not available.

Snow Depth

Station Depth Elevation

Earthquake Activity

City Distance Mag. Time & Date
Minimum magnitude displayed is 2.5.

Coastal Water Temperatures

Place Temperature

Nearby Weather Stations